createdAt,value
2019-02-20T00:08:41.804Z,11.17
2019-02-20T00:23:44.410Z,12.80
2019-02-20T00:38:47.000Z,13.13
2019-02-20T00:53:51.616Z,14.43
2019-02-20T01:08:54.201Z,9.50
2019-02-20T01:23:56.777Z,11.60
2019-02-20T01:38:59.360Z,11.47
2019-02-20T01:54:01.988Z,13.53
2019-02-20T02:09:07.322Z,17.07
2019-02-20T02:24:11.282Z,16.73
2019-02-20T02:39:14.061Z,12.30
2019-02-20T02:54:16.658Z,15.70
2019-02-20T03:09:19.261Z,17.20
2019-02-20T03:24:22.735Z,19.27
2019-02-20T03:39:25.325Z,15.13
2019-02-20T03:54:30.209Z,12.67
2019-02-20T04:09:32.789Z,13.73
2019-02-20T04:24:35.470Z,11.20
2019-02-20T04:39:38.061Z,11.40
2019-02-20T04:54:40.823Z,15.30
2019-02-20T05:09:44.762Z,12.60
2019-02-20T05:24:47.506Z,16.10
2019-02-20T05:39:50.092Z,17.47
2019-02-20T05:54:52.771Z,14.93
2019-02-20T06:09:56.311Z,13.93
2019-02-20T06:24:59.818Z,19.87
2019-02-20T06:40:03.383Z,34.37
2019-02-20T06:55:10.182Z,26.17
2019-02-20T07:10:22.141Z,28.93
2019-02-20T07:25:29.656Z,30.77
2019-02-20T07:40:33.235Z,27.43
2019-02-20T07:55:35.862Z,25.77
2019-02-20T08:10:38.459Z,29.20
2019-02-20T08:25:41.080Z,25.20
2019-02-20T08:40:43.683Z,26.53
2019-02-20T08:55:47.100Z,29.27
2019-02-20T09:10:50.357Z,33.33
2019-02-20T09:25:52.953Z,31.70
2019-02-20T09:40:55.559Z,25.23
2019-02-20T09:56:00.136Z,12.73
2019-02-20T10:11:03.802Z,9.80
2019-02-20T10:26:06.385Z,9.70
2019-02-20T10:41:09.032Z,10.50
2019-02-20T10:56:13.531Z,9.60
2019-02-20T11:11:16.149Z,9.03
2019-02-20T11:26:19.818Z,8.77
2019-02-20T11:41:22.532Z,8.53
2019-02-20T11:56:26.822Z,8.67
2019-02-20T12:11:32.777Z,9.57
2019-02-20T12:26:35.480Z,10.23
2019-02-20T12:41:38.186Z,10.00
2019-02-20T12:56:44.225Z,10.77
2019-02-20T13:11:47.178Z,11.40
2019-02-20T13:26:53.146Z,10.23
2019-02-20T13:41:56.945Z,10.13
2019-02-20T13:57:02.119Z,10.30
2019-02-20T14:12:07.224Z,8.40
2019-02-20T14:27:11.283Z,11.53
2019-02-20T14:42:14.125Z,15.43
2019-02-20T14:57:19.672Z,25.23
2019-02-20T15:12:22.928Z,12.77
2019-02-20T15:27:28.682Z,12.80
2019-02-20T15:42:32.052Z,12.57
2019-02-20T15:57:38.219Z,14.30
2019-02-20T16:12:40.424Z,11.10
2019-02-20T16:27:47.073Z,12.63
2019-02-20T16:42:49.569Z,11.90
2019-02-20T16:57:56.738Z,11.27
2019-02-20T17:12:58.222Z,12.17
2019-02-20T17:28:05.715Z,11.03
2019-02-20T17:43:06.876Z,12.10
2019-02-20T17:58:15.196Z,12.77
2019-02-20T18:13:15.668Z,11.50
2019-02-20T18:28:24.117Z,13.30
2019-02-20T18:43:22.905Z,12.43
2019-02-20T18:58:33.705Z,11.50
2019-02-20T20:16:33.051Z,12.73
2019-02-20T20:31:42.425Z,12.17
2019-02-20T20:46:56.071Z,13.87
2019-02-20T21:02:12.189Z,12.13
2019-02-20T21:33:19.444Z,13.03
2019-02-20T21:48:28.433Z,9.33
2019-02-20T22:19:24.757Z,12.63
2019-02-20T22:34:41.957Z,12.73
2019-02-20T23:05:33.731Z,13.83
2019-02-20T23:20:36.288Z,16.47
2019-02-20T23:35:38.888Z,14.27
2019-02-20T23:50:43.011Z,17.50
